createdAt,value
2022-10-08T00:01:10.925Z,14.70
2022-10-08T00:02:43.939Z,14.80
2022-10-08T00:04:16.956Z,14.80
2022-10-08T00:05:56.272Z,14.80
2022-10-08T00:07:29.050Z,14.80
2022-10-08T00:09:05.530Z,14.80
2022-10-08T00:10:38.645Z,14.80
2022-10-08T00:12:11.361Z,14.80
2022-10-08T00:13:45.698Z,14.80
2022-10-08T00:15:18.425Z,14.80
2022-10-08T00:16:51.166Z,14.80
2022-10-08T00:18:23.893Z,14.90
2022-10-08T00:19:57.353Z,14.80
2022-10-08T00:21:32.403Z,14.80
2022-10-08T00:23:05.173Z,14.80
2022-10-08T00:24:38.926Z,14.70
2022-10-08T00:26:12.281Z,14.70
2022-10-08T00:27:44.994Z,14.70
2022-10-08T00:29:20.936Z,14.70
2022-10-08T00:30:52.691Z,14.80
2022-10-08T00:32:25.475Z,14.80
2022-10-08T00:34:00.004Z,14.80
2022-10-08T00:35:37.596Z,14.70
2022-10-08T00:37:10.302Z,14.70
2022-10-08T00:38:43.017Z,14.70
2022-10-08T00:40:15.869Z,14.60
2022-10-08T00:41:52.177Z,14.60
2022-10-08T00:43:40.017Z,14.60
2022-10-08T00:45:13.989Z,14.60
2022-10-08T00:46:49.465Z,14.60
2022-10-08T00:48:25.816Z,14.50
2022-10-08T00:50:01.488Z,14.50
2022-10-08T00:51:35.028Z,14.50
2022-10-08T00:53:10.007Z,14.60
2022-10-08T00:54:43.006Z,14.60
2022-10-08T00:56:15.789Z,14.60
2022-10-08T00:57:50.486Z,14.60
2022-10-08T00:59:22.236Z,14.60
2022-10-08T01:00:55.476Z,14.60
2022-10-08T01:02:27.285Z,14.60
2022-10-08T01:04:05.309Z,14.60
2022-10-08T01:05:46.838Z,14.60
2022-10-08T01:07:27.091Z,14.60
2022-10-08T01:09:03.997Z,14.60
2022-10-08T01:10:46.555Z,14.60
2022-10-08T01:12:34.078Z,14.60
2022-10-08T01:14:20.785Z,14.60
2022-10-08T01:16:01.343Z,14.60
2022-10-08T01:17:43.370Z,14.50
2022-10-08T01:19:34.670Z,14.50
2022-10-08T01:21:12.918Z,14.50
2022-10-08T01:23:07.054Z,14.50
2022-10-08T01:25:05.045Z,14.50
2022-10-08T01:26:53.907Z,14.50
2022-10-08T01:28:32.000Z,14.50
2022-10-08T01:30:09.637Z,14.50
2022-10-08T01:31:44.992Z,14.50
2022-10-08T01:33:23.817Z,14.50
2022-10-08T01:35:00.174Z,14.40
2022-10-08T01:36:38.528Z,14.40
2022-10-08T01:38:15.884Z,14.50
2022-10-08T01:39:50.367Z,14.40
2022-10-08T01:41:26.219Z,14.40
2022-10-08T01:43:00.100Z,14.40
2022-10-08T01:44:39.112Z,14.40
2022-10-08T01:46:17.140Z,14.40
2022-10-08T01:47:51.344Z,14.40
2022-10-08T01:49:27.168Z,14.30
2022-10-08T01:51:04.176Z,14.30
2022-10-08T01:52:40.532Z,14.30
2022-10-08T01:54:16.244Z,14.30
2022-10-08T01:55:50.629Z,14.30
2022-10-08T01:57:24.988Z,14.30
2022-10-08T01:59:02.791Z,14.30
2022-10-08T02:00:39.048Z,14.20
2022-10-08T02:02:18.279Z,14.20
2022-10-08T02:04:06.315Z,14.20
2022-10-08T02:05:42.028Z,14.10
2022-10-08T02:07:18.187Z,14.10
2022-10-08T02:08:51.118Z,14.10
2022-10-08T02:10:25.928Z,14.10
2022-10-08T02:11:57.713Z,14.10
2022-10-08T02:13:30.474Z,14.10
2022-10-08T02:15:04.689Z,14.10
2022-10-08T02:16:44.099Z,14.10
2022-10-08T02:18:19.826Z,14.10
2022-10-08T02:19:57.462Z,14.10
2022-10-08T02:21:30.880Z,14.10
2022-10-08T02:23:08.061Z,14.10
2022-10-08T02:24:44.462Z,14.10
2022-10-08T02:26:22.705Z,14.10
2022-10-08T02:28:05.761Z,14.10
2022-10-08T02:29:41.490Z,14.10
2022-10-08T02:31:20.022Z,14.00
2022-10-08T02:32:59.345Z,14.00
2022-10-08T02:34:33.020Z,14.00
2022-10-08T02:36:08.736Z,14.00
2022-10-08T02:37:46.131Z,14.00
2022-10-08T02:39:21.775Z,13.90
2022-10-08T02:40:58.795Z,13.90
2022-10-08T02:42:32.174Z,13.90
2022-10-08T02:44:09.183Z,13.90
2022-10-08T02:45:46.408Z,13.90
2022-10-08T02:47:23.343Z,13.90
2022-10-08T02:49:02.461Z,13.90
2022-10-08T02:50:40.681Z,13.90
2022-10-08T02:52:14.536Z,13.90
2022-10-08T02:53:49.336Z,13.80
2022-10-08T02:55:28.771Z,13.80
2022-10-08T02:57:09.514Z,13.80
2022-10-08T02:58:43.511Z,13.70
2022-10-08T03:00:15.397Z,13.70
2022-10-08T03:01:52.115Z,13.70
2022-10-08T03:03:31.091Z,13.70
2022-10-08T03:05:07.485Z,13.70
2022-10-08T03:06:40.781Z,13.70
2022-10-08T03:08:15.683Z,13.60
2022-10-08T03:09:51.597Z,13.70
2022-10-08T03:11:24.651Z,13.60
2022-10-08T03:13:01.457Z,13.60
2022-10-08T03:14:35.363Z,13.50
2022-10-08T03:16:09.770Z,13.50
2022-10-08T03:17:45.596Z,13.50
2022-10-08T03:19:19.976Z,13.50
2022-10-08T03:20:55.760Z,13.50
2022-10-08T03:22:28.047Z,13.50
2022-10-08T03:24:00.786Z,13.50
2022-10-08T03:25:32.573Z,13.50
2022-10-08T03:27:05.589Z,13.40
2022-10-08T03:28:37.475Z,13.40
2022-10-08T03:30:11.949Z,13.40
2022-10-08T03:31:44.640Z,13.40
2022-10-08T03:33:17.348Z,13.30
2022-10-08T03:34:49.099Z,13.30
2022-10-08T03:36:24.795Z,13.20
2022-10-08T03:37:57.497Z,13.20
2022-10-08T03:39:30.222Z,13.20
2022-10-08T03:41:02.546Z,13.20
2022-10-08T03:42:35.248Z,13.20
2022-10-08T03:44:08.219Z,13.10
2022-10-08T03:45:49.263Z,13.20
2022-10-08T03:47:21.981Z,13.20
2022-10-08T03:48:54.697Z,13.10
2022-10-08T03:50:27.469Z,13.10
2022-10-08T03:52:01.552Z,13.10
2022-10-08T03:53:36.048Z,13.10
2022-10-08T03:55:09.502Z,13.10
2022-10-08T03:56:42.201Z,13.00
2022-10-08T03:58:15.483Z,13.00
2022-10-08T03:59:47.272Z,13.00
2022-10-08T04:01:20.104Z,13.00
2022-10-08T04:02:52.303Z,13.00
2022-10-08T04:04:25.830Z,13.00
2022-10-08T04:05:58.423Z,12.90
2022-10-08T04:07:32.480Z,12.90
2022-10-08T04:09:05.267Z,12.90
2022-10-08T04:10:39.416Z,12.90
2022-10-08T04:12:11.157Z,12.90
2022-10-08T04:13:44.882Z,12.90
2022-10-08T04:15:18.205Z,12.90
2022-10-08T04:16:50.899Z,12.90
2022-10-08T04:18:23.601Z,12.90
2022-10-08T04:19:57.145Z,12.90
2022-10-08T04:21:31.407Z,12.90
2022-10-08T04:23:04.496Z,12.90
2022-10-08T04:24:37.188Z,12.80
2022-10-08T04:26:11.052Z,12.80
2022-10-08T04:27:44.142Z,12.80
2022-10-08T04:29:17.032Z,12.80
2022-10-08T04:30:57.086Z,12.80
2022-10-08T04:32:29.826Z,12.70
2022-10-08T04:34:02.517Z,12.70
2022-10-08T04:35:37.126Z,12.70
2022-10-08T04:37:09.829Z,12.70
2022-10-08T04:38:44.854Z,12.60
2022-10-08T04:40:17.768Z,12.60
2022-10-08T04:41:49.528Z,12.60
2022-10-08T04:43:23.353Z,12.60
2022-10-08T04:44:56.048Z,12.60
2022-10-08T04:46:27.964Z,12.60
2022-10-08T04:48:00.725Z,12.60
2022-10-08T04:49:33.457Z,12.50
2022-10-08T04:51:10.359Z,12.50
2022-10-08T04:52:43.567Z,12.50
2022-10-08T04:54:17.637Z,12.50
2022-10-08T04:55:49.403Z,12.50
2022-10-08T04:57:22.186Z,12.50
2022-10-08T04:58:55.877Z,12.50
2022-10-08T05:00:27.677Z,12.50
2022-10-08T05:02:00.434Z,12.40
2022-10-08T05:03:35.532Z,12.40
2022-10-08T05:05:08.967Z,12.40
2022-10-08T05:06:41.676Z,12.40
2022-10-08T05:08:13.503Z,12.40
2022-10-08T05:09:47.555Z,12.30
2022-10-08T05:11:20.857Z,12.30
2022-10-08T05:12:52.599Z,12.30
2022-10-08T05:14:25.442Z,12.30
2022-10-08T05:15:58.217Z,12.30
2022-10-08T05:17:30.005Z,12.20
2022-10-08T05:19:02.913Z,12.20
2022-10-08T05:20:36.339Z,12.20
2022-10-08T05:22:09.024Z,12.20
2022-10-08T05:23:43.532Z,12.20
2022-10-08T05:25:17.864Z,12.20
2022-10-08T05:26:59.509Z,12.20
2022-10-08T05:28:31.381Z,12.20
2022-10-08T05:30:05.118Z,12.20
2022-10-08T05:31:38.726Z,12.20
2022-10-08T05:33:11.482Z,12.10
2022-10-08T05:34:44.306Z,12.10
2022-10-08T05:36:20.489Z,12.10
2022-10-08T05:37:53.218Z,12.10
2022-10-08T05:39:25.988Z,12.00
2022-10-08T05:41:10.631Z,12.00
2022-10-08T05:42:43.327Z,12.00
2022-10-08T05:44:16.038Z,12.00
2022-10-08T05:45:52.079Z,12.00
2022-10-08T05:47:24.890Z,12.00
2022-10-08T05:48:59.430Z,12.00
2022-10-08T05:50:32.120Z,11.90
2022-10-08T05:52:04.832Z,11.90
2022-10-08T05:53:37.484Z,11.80
2022-10-08T05:55:10.658Z,11.90
2022-10-08T05:56:44.940Z,11.80
2022-10-08T05:58:16.689Z,11.80
2022-10-08T05:59:49.393Z,11.70
2022-10-08T06:01:24.546Z,11.80
2022-10-08T06:02:57.288Z,11.80
2022-10-08T06:04:30.101Z,11.80
2022-10-08T06:06:04.537Z,11.70
2022-10-08T06:07:37.257Z,11.80
2022-10-08T06:09:12.061Z,11.80
2022-10-08T06:10:50.022Z,11.80
2022-10-08T06:12:24.113Z,11.80
2022-10-08T06:13:58.400Z,11.80
2022-10-08T06:15:31.094Z,11.80
2022-10-08T06:17:03.806Z,11.80
2022-10-08T06:18:37.054Z,11.80
2022-10-08T06:20:10.353Z,11.80
2022-10-08T06:21:43.097Z,11.80
2022-10-08T06:23:14.848Z,11.80
2022-10-08T06:24:47.713Z,11.80
2022-10-08T06:26:21.936Z,11.90
2022-10-08T06:27:55.989Z,11.90
2022-10-08T06:29:28.756Z,11.80
2022-10-08T06:31:00.589Z,11.80
2022-10-08T06:32:33.353Z,11.80
2022-10-08T06:34:06.097Z,11.80
2022-10-08T06:35:38.508Z,11.80
2022-10-08T06:37:11.212Z,11.80
2022-10-08T06:38:44.115Z,11.80
2022-10-08T06:40:17.255Z,11.80
2022-10-08T06:41:49.954Z,11.80
2022-10-08T06:43:24.045Z,11.80
2022-10-08T06:45:01.387Z,11.80
2022-10-08T06:46:35.477Z,11.80
2022-10-08T06:48:08.625Z,11.80
2022-10-08T06:49:41.315Z,11.80
2022-10-08T06:51:16.295Z,11.90
2022-10-08T06:52:49.484Z,11.90
2022-10-08T06:54:25.020Z,11.90
2022-10-08T06:55:57.751Z,11.90
2022-10-08T06:57:30.838Z,11.90
2022-10-08T06:59:05.505Z,11.90
2022-10-08T07:00:37.369Z,12.00
2022-10-08T07:02:11.369Z,11.90
2022-10-08T07:03:44.697Z,12.00
2022-10-08T07:05:17.658Z,12.00
2022-10-08T07:06:50.377Z,12.00
2022-10-08T07:08:22.137Z,12.00
2022-10-08T07:09:54.844Z,12.00
2022-10-08T07:11:26.775Z,12.10
2022-10-08T07:12:59.472Z,12.20
2022-10-08T07:14:33.526Z,12.50
2022-10-08T07:16:08.335Z,12.70
2022-10-08T07:17:41.065Z,12.90
2022-10-08T07:19:13.789Z,13.10
2022-10-08T07:20:55.548Z,13.20
2022-10-08T07:22:28.318Z,13.30
2022-10-08T07:24:01.811Z,13.50
2022-10-08T07:25:34.549Z,13.60
2022-10-08T07:27:07.290Z,13.70
2022-10-08T07:28:42.534Z,13.90
2022-10-08T07:30:16.745Z,14.10
2022-10-08T07:31:49.580Z,14.30
2022-10-08T07:33:21.777Z,14.60
2022-10-08T07:34:57.899Z,14.90
2022-10-08T07:36:33.615Z,15.20
2022-10-08T07:38:05.394Z,15.50
2022-10-08T07:39:38.185Z,15.80
2022-10-08T07:41:12.324Z,16.20
2022-10-08T07:42:45.384Z,16.50
2022-10-08T07:44:18.695Z,16.80
2022-10-08T07:45:52.791Z,17.00
2022-10-08T07:47:25.569Z,17.30
2022-10-08T07:49:01.318Z,17.50
2022-10-08T07:50:34.013Z,17.70
2022-10-08T07:52:07.998Z,18.00
2022-10-08T07:53:41.442Z,18.20
2022-10-08T07:55:14.651Z,18.40
2022-10-08T07:56:47.759Z,18.60
2022-10-08T07:58:20.460Z,18.80
2022-10-08T07:59:53.188Z,19.00
2022-10-08T08:01:29.584Z,19.10
2022-10-08T08:03:02.433Z,19.40
2022-10-08T08:04:35.199Z,19.50
2022-10-08T08:06:10.129Z,19.70
2022-10-08T08:07:42.816Z,19.80
2022-10-08T08:09:16.182Z,19.80
2022-10-08T08:10:48.930Z,19.70
2022-10-08T08:12:21.652Z,19.60
2022-10-08T08:13:53.501Z,19.40
2022-10-08T08:15:26.307Z,19.30
2022-10-08T08:17:00.565Z,19.10
2022-10-08T08:18:35.169Z,18.90
2022-10-08T08:20:09.024Z,18.80
2022-10-08T08:21:41.747Z,18.70
2022-10-08T08:23:14.431Z,18.60
2022-10-08T08:24:47.147Z,18.40
2022-10-08T08:26:21.003Z,18.30
2022-10-08T08:27:53.694Z,18.00
2022-10-08T08:29:26.400Z,17.90
2022-10-08T08:31:08.479Z,17.80
2022-10-08T08:32:42.514Z,17.70
2022-10-08T08:34:17.500Z,17.50
2022-10-08T08:35:52.357Z,17.40
2022-10-08T08:37:25.072Z,17.30
2022-10-08T08:38:58.021Z,17.30
2022-10-08T08:40:30.753Z,17.30
2022-10-08T08:42:20.940Z,17.20
2022-10-08T08:43:59.380Z,17.20
2022-10-08T08:45:46.452Z,17.20
2022-10-08T08:47:23.814Z,17.10
2022-10-08T08:49:03.284Z,17.00
2022-10-08T08:50:39.067Z,16.90
2022-10-08T08:52:13.369Z,17.00
2022-10-08T08:53:46.113Z,16.90
2022-10-08T08:55:21.130Z,16.90
2022-10-08T08:56:54.797Z,16.80
2022-10-08T08:58:35.623Z,16.80
2022-10-08T09:00:14.868Z,16.80
2022-10-08T09:01:48.320Z,16.70
2022-10-08T09:03:24.213Z,16.60
2022-10-08T09:05:01.398Z,16.60
2022-10-08T09:06:36.076Z,16.50
2022-10-08T09:08:16.823Z,16.50
2022-10-08T09:09:53.986Z,16.60
2022-10-08T09:11:26.738Z,16.60
2022-10-08T09:13:01.044Z,16.70
2022-10-08T09:14:39.213Z,16.70
2022-10-08T09:16:13.546Z,16.80
2022-10-08T09:17:49.718Z,16.80
2022-10-08T09:19:22.696Z,16.90
2022-10-08T09:20:56.785Z,16.80
2022-10-08T09:22:33.145Z,16.90
2022-10-08T09:24:06.229Z,16.80
2022-10-08T09:25:38.949Z,16.80
2022-10-08T09:27:13.175Z,16.70
2022-10-08T09:28:48.071Z,16.70
2022-10-08T09:30:34.019Z,16.70
2022-10-08T09:32:07.557Z,16.80
2022-10-08T09:33:41.253Z,16.80
2022-10-08T09:35:16.824Z,16.80
2022-10-08T09:36:52.811Z,16.80
2022-10-08T09:38:27.190Z,16.80
2022-10-08T09:40:21.606Z,16.90
2022-10-08T09:42:15.049Z,16.90
2022-10-08T09:44:10.753Z,16.90
2022-10-08T09:45:46.183Z,16.90
2022-10-08T09:47:20.738Z,17.00
2022-10-08T09:48:53.622Z,17.00
2022-10-08T09:50:26.405Z,17.10
2022-10-08T09:52:04.846Z,17.10
2022-10-08T09:53:42.242Z,17.30
2022-10-08T09:55:22.020Z,17.40
2022-10-08T09:56:57.548Z,17.50
2022-10-08T09:58:33.114Z,17.50
2022-10-08T10:00:10.417Z,17.50
2022-10-08T10:01:46.607Z,17.50
2022-10-08T10:03:20.904Z,17.40
2022-10-08T10:04:54.902Z,17.50
2022-10-08T10:06:30.672Z,17.50
2022-10-08T10:08:05.378Z,17.70
2022-10-08T10:09:44.777Z,17.80
2022-10-08T10:11:27.559Z,17.90
2022-10-08T10:13:07.381Z,17.90
2022-10-08T10:14:45.828Z,17.90
2022-10-08T10:16:24.241Z,17.90
2022-10-08T10:18:01.911Z,17.90
2022-10-08T10:19:43.597Z,17.90
2022-10-08T10:21:19.954Z,17.80
2022-10-08T10:22:57.112Z,17.60
2022-10-08T10:24:40.989Z,17.50
2022-10-08T10:26:19.792Z,17.40
2022-10-08T10:27:56.003Z,17.30
2022-10-08T10:29:37.144Z,17.30
2022-10-08T10:31:14.787Z,17.20
2022-10-08T10:32:51.955Z,17.20
2022-10-08T10:34:26.772Z,17.20
2022-10-08T10:36:03.764Z,17.30
2022-10-08T10:37:44.725Z,17.30
2022-10-08T10:39:31.437Z,17.40
2022-10-08T10:41:18.242Z,17.50
2022-10-08T10:42:58.117Z,17.60
2022-10-08T10:44:37.265Z,17.70
2022-10-08T10:46:25.556Z,17.90
2022-10-08T10:47:58.685Z,17.80
2022-10-08T10:49:35.164Z,17.90
2022-10-08T10:51:31.166Z,17.90
2022-10-08T10:53:13.719Z,17.90
2022-10-08T10:55:03.566Z,17.80
2022-10-08T10:56:42.338Z,17.70
2022-10-08T10:58:31.199Z,17.60
2022-10-08T11:00:10.577Z,17.70
2022-10-08T11:01:54.212Z,17.70
2022-10-08T11:03:39.124Z,17.60
2022-10-08T11:05:19.705Z,17.60
2022-10-08T11:07:03.941Z,17.60
2022-10-08T11:08:44.342Z,17.70
2022-10-08T11:10:29.766Z,17.70
2022-10-08T11:12:10.908Z,17.70
2022-10-08T11:13:55.150Z,17.70
2022-10-08T11:15:36.575Z,17.60
2022-10-08T11:17:25.383Z,17.60
2022-10-08T11:19:00.292Z,17.60
2022-10-08T11:20:44.807Z,17.70
2022-10-08T11:22:24.996Z,17.70
2022-10-08T11:24:26.536Z,17.70
2022-10-08T11:28:13.568Z,17.80
2022-10-08T11:29:53.541Z,17.70
2022-10-08T11:31:38.237Z,17.70
2022-10-08T11:33:15.360Z,17.80
2022-10-08T11:34:53.605Z,17.90
2022-10-08T11:36:34.556Z,17.90
2022-10-08T11:38:12.717Z,18.00
2022-10-08T11:39:52.113Z,18.00
2022-10-08T11:41:30.353Z,18.00
2022-10-08T11:43:11.694Z,18.10
2022-10-08T11:44:44.527Z,18.10
2022-10-08T11:46:29.826Z,18.10
2022-10-08T11:48:23.458Z,18.10
2022-10-08T11:49:56.822Z,18.10
2022-10-08T11:51:32.069Z,18.10
2022-10-08T11:53:18.656Z,18.10
2022-10-08T11:54:55.860Z,18.10
2022-10-08T11:56:27.994Z,18.10
2022-10-08T11:58:09.960Z,18.10
2022-10-08T11:59:46.182Z,18.20
2022-10-08T12:01:18.925Z,18.30
2022-10-08T12:02:53.956Z,18.30
2022-10-08T12:04:31.546Z,18.30
2022-10-08T12:06:17.824Z,18.40
2022-10-08T12:07:53.091Z,18.40
2022-10-08T12:09:25.314Z,18.40
2022-10-08T12:11:37.341Z,18.40
2022-10-08T12:13:31.573Z,18.50
2022-10-08T12:15:46.925Z,18.60
2022-10-08T12:17:19.797Z,18.60
2022-10-08T12:18:52.641Z,18.60
2022-10-08T12:20:27.434Z,18.70
2022-10-08T12:22:01.468Z,18.70
2022-10-08T12:23:39.274Z,18.80
2022-10-08T12:25:33.278Z,18.80
2022-10-08T12:27:26.042Z,18.90
2022-10-08T12:28:59.456Z,18.90
2022-10-08T12:32:32.492Z,18.90
2022-10-08T12:34:15.316Z,18.90
2022-10-08T12:35:57.934Z,18.90
2022-10-08T12:38:07.040Z,18.90
2022-10-08T12:39:44.847Z,18.90
2022-10-08T12:41:23.374Z,18.90
2022-10-08T12:43:09.205Z,18.90
2022-10-08T12:44:55.073Z,18.90
2022-10-08T12:46:39.021Z,18.90
2022-10-08T12:48:20.830Z,18.80
2022-10-08T12:49:59.448Z,18.70
2022-10-08T12:51:40.992Z,18.70
2022-10-08T12:53:16.993Z,18.60
2022-10-08T12:54:52.325Z,18.50
2022-10-08T12:56:28.065Z,18.50
2022-10-08T12:58:01.365Z,18.50
2022-10-08T12:59:34.126Z,18.50
2022-10-08T13:01:07.349Z,18.50
2022-10-08T13:02:42.654Z,18.50
2022-10-08T13:04:21.384Z,18.50
2022-10-08T13:05:55.332Z,18.40
2022-10-08T13:07:30.329Z,18.40
2022-10-08T13:09:14.830Z,18.40
2022-10-08T13:10:47.592Z,18.30
2022-10-08T13:12:20.306Z,18.30
2022-10-08T13:13:53.010Z,18.30
2022-10-08T13:15:26.104Z,18.20
2022-10-08T13:16:59.273Z,18.20
2022-10-08T13:18:32.350Z,18.20
2022-10-08T13:20:13.239Z,18.20
2022-10-08T13:21:55.602Z,18.10
2022-10-08T13:23:35.106Z,18.10
2022-10-08T13:25:32.920Z,18.10
2022-10-08T13:27:07.561Z,18.10
2022-10-08T13:28:59.063Z,18.10
2022-10-08T13:30:32.655Z,17.90
2022-10-08T13:32:17.287Z,18.00
2022-10-08T13:33:50.061Z,18.10
2022-10-08T13:35:25.321Z,18.00
2022-10-08T13:37:00.121Z,17.90
2022-10-08T13:38:36.891Z,18.00
2022-10-08T13:40:19.973Z,18.00
2022-10-08T13:41:54.736Z,18.00
2022-10-08T13:43:27.797Z,18.00
2022-10-08T13:45:01.574Z,17.90
2022-10-08T13:46:34.415Z,17.80
2022-10-08T13:48:10.575Z,17.70
2022-10-08T13:49:43.733Z,17.70
2022-10-08T13:51:17.799Z,17.70
2022-10-08T13:52:54.252Z,17.60
2022-10-08T13:54:30.145Z,17.60
2022-10-08T13:56:02.928Z,17.60
2022-10-08T13:57:35.654Z,17.60
2022-10-08T13:59:10.493Z,17.60
2022-10-08T14:00:44.763Z,17.50
2022-10-08T14:02:17.607Z,17.40
2022-10-08T14:03:50.392Z,17.40
2022-10-08T14:05:24.262Z,17.30
2022-10-08T14:06:59.938Z,17.30
2022-10-08T14:08:34.277Z,17.30
2022-10-08T14:10:07.733Z,17.40
2022-10-08T14:11:42.994Z,17.40
2022-10-08T14:13:16.800Z,17.40
2022-10-08T14:14:48.585Z,17.40
2022-10-08T14:16:21.315Z,17.40
2022-10-08T14:17:54.206Z,17.40
2022-10-08T14:19:26.929Z,17.40
2022-10-08T14:20:59.655Z,17.40
2022-10-08T14:22:38.668Z,17.40
2022-10-08T14:24:12.944Z,17.40
2022-10-08T14:25:45.656Z,17.40
2022-10-08T14:27:18.521Z,17.40
2022-10-08T14:28:51.243Z,17.50
2022-10-08T14:30:23.986Z,17.40
2022-10-08T14:31:56.750Z,17.40
2022-10-08T14:33:29.505Z,17.50
2022-10-08T14:35:02.248Z,17.40
2022-10-08T14:36:37.441Z,17.50
2022-10-08T14:38:11.508Z,17.40
2022-10-08T14:39:44.608Z,17.50
2022-10-08T14:41:17.555Z,17.50
2022-10-08T14:42:51.109Z,17.50
2022-10-08T14:44:24.242Z,17.50
2022-10-08T14:45:57.034Z,17.50
2022-10-08T14:47:29.957Z,17.50
2022-10-08T14:49:04.700Z,17.50
2022-10-08T14:50:37.435Z,17.50
2022-10-08T14:52:10.194Z,17.40
2022-10-08T14:53:44.373Z,17.40
2022-10-08T14:55:17.075Z,17.40
2022-10-08T14:56:49.805Z,17.40
2022-10-08T14:58:22.490Z,17.40
2022-10-08T14:59:55.181Z,17.40
2022-10-08T15:01:28.249Z,17.40
2022-10-08T15:03:01.444Z,17.40
2022-10-08T15:04:34.141Z,17.40
2022-10-08T15:06:07.221Z,17.40
2022-10-08T15:07:39.065Z,17.40
2022-10-08T15:09:13.889Z,17.50
2022-10-08T15:10:46.919Z,17.50
2022-10-08T15:12:19.838Z,17.50
2022-10-08T15:13:53.595Z,17.50
2022-10-08T15:15:26.373Z,17.60
2022-10-08T15:16:59.096Z,17.50
2022-10-08T15:18:32.185Z,17.50
2022-10-08T15:20:05.475Z,17.50
2022-10-08T15:21:38.285Z,17.50
2022-10-08T15:23:11.260Z,17.60
2022-10-08T15:24:45.295Z,17.60
2022-10-08T15:26:19.241Z,17.60
2022-10-08T15:27:51.976Z,17.60
2022-10-08T15:29:24.719Z,17.60
2022-10-08T15:31:05.270Z,17.60
2022-10-08T15:32:39.090Z,17.60
2022-10-08T15:34:17.155Z,17.60
2022-10-08T15:35:49.837Z,17.70
2022-10-08T15:37:23.123Z,17.70
2022-10-08T15:38:57.172Z,17.70
2022-10-08T15:40:32.333Z,17.70
2022-10-08T15:42:05.331Z,17.70
2022-10-08T15:43:38.103Z,17.70
2022-10-08T15:45:11.136Z,17.70
2022-10-08T15:46:43.940Z,17.70
2022-10-08T15:48:16.762Z,17.60
2022-10-08T15:49:49.716Z,17.60
2022-10-08T15:51:23.174Z,17.50
2022-10-08T15:52:55.905Z,17.50
2022-10-08T15:54:28.721Z,17.50
2022-10-08T15:56:03.126Z,17.40
2022-10-08T15:57:35.834Z,17.40
2022-10-08T15:59:08.607Z,17.30
2022-10-08T16:00:41.284Z,17.30
2022-10-08T16:02:17.404Z,17.20
2022-10-08T16:03:52.133Z,17.20
2022-10-08T16:05:25.017Z,17.10
2022-10-08T16:06:57.813Z,17.10
2022-10-08T16:08:31.657Z,17.10
2022-10-08T16:10:04.693Z,17.10
2022-10-08T16:11:38.175Z,17.10
2022-10-08T16:13:10.906Z,17.10
2022-10-08T16:14:43.632Z,17.10
2022-10-08T16:16:17.923Z,17.00
2022-10-08T16:17:52.318Z,17.00
2022-10-08T16:19:26.775Z,17.00
2022-10-08T16:21:02.258Z,17.00
2022-10-08T16:22:35.077Z,16.90
2022-10-08T16:24:07.979Z,16.90
2022-10-08T16:25:45.338Z,16.90
2022-10-08T16:27:19.593Z,16.80
2022-10-08T16:28:54.985Z,16.80
2022-10-08T16:30:28.020Z,16.80
2022-10-08T16:32:00.937Z,16.80
2022-10-08T16:33:34.426Z,16.70
2022-10-08T16:35:07.750Z,16.70
2022-10-08T16:36:40.525Z,16.60
2022-10-08T16:38:13.245Z,16.60
2022-10-08T16:39:46.044Z,16.60
2022-10-08T16:41:21.624Z,16.50
2022-10-08T16:42:56.010Z,16.50
2022-10-08T16:44:28.920Z,16.50
2022-10-08T16:46:00.769Z,16.50
2022-10-08T16:47:33.509Z,16.50
2022-10-08T16:49:08.210Z,16.50
2022-10-08T16:50:42.200Z,16.50
2022-10-08T16:52:14.920Z,16.40
2022-10-08T16:53:48.958Z,16.40
2022-10-08T16:55:21.705Z,16.40
2022-10-08T16:56:54.548Z,16.30
2022-10-08T16:58:27.624Z,16.30
2022-10-08T17:00:01.043Z,16.20
2022-10-08T17:01:34.831Z,16.20
2022-10-08T17:03:07.922Z,16.20
2022-10-08T17:04:40.697Z,16.10
2022-10-08T17:06:13.550Z,16.10
2022-10-08T17:07:46.264Z,16.00
2022-10-08T17:09:19.061Z,16.00
2022-10-08T17:10:51.780Z,16.00
2022-10-08T17:12:24.530Z,15.90
2022-10-08T17:14:00.186Z,15.90
2022-10-08T17:15:32.933Z,15.90
2022-10-08T17:17:05.884Z,15.90
2022-10-08T17:18:38.914Z,15.90
2022-10-08T17:20:11.806Z,15.80
2022-10-08T17:21:45.047Z,15.80
2022-10-08T17:23:17.915Z,15.80
2022-10-08T17:24:50.650Z,15.70
2022-10-08T17:26:24.813Z,15.60
2022-10-08T17:27:57.504Z,15.60
2022-10-08T17:29:31.868Z,15.60
2022-10-08T17:31:06.593Z,15.60
2022-10-08T17:32:39.409Z,15.50
2022-10-08T17:34:12.521Z,15.40
2022-10-08T17:35:45.227Z,15.50
2022-10-08T17:37:17.946Z,15.50
2022-10-08T17:38:52.739Z,15.40
2022-10-08T17:40:25.514Z,15.40
2022-10-08T17:41:58.265Z,15.40
2022-10-08T17:43:31.084Z,15.30
2022-10-08T17:45:05.839Z,15.20
2022-10-08T17:46:40.600Z,15.20
2022-10-08T17:48:13.301Z,15.20
2022-10-08T17:49:46.049Z,15.20
2022-10-08T17:51:20.777Z,15.20
2022-10-08T17:52:53.496Z,15.10
2022-10-08T17:54:26.309Z,15.10
2022-10-08T17:56:00.359Z,15.10
2022-10-08T17:57:33.126Z,15.00
2022-10-08T17:59:06.418Z,15.00
2022-10-08T18:00:40.566Z,14.90
2022-10-08T18:02:13.488Z,14.80
2022-10-08T18:03:51.806Z,14.70
2022-10-08T18:05:24.557Z,14.70
2022-10-08T18:07:02.499Z,14.70
2022-10-08T18:08:36.609Z,14.70
2022-10-08T18:10:11.302Z,14.60
2022-10-08T18:11:46.496Z,14.60
2022-10-08T18:13:19.479Z,14.50
2022-10-08T18:14:52.334Z,14.50
2022-10-08T18:16:26.961Z,14.50
2022-10-08T18:17:59.861Z,14.50
2022-10-08T18:19:32.685Z,14.50
2022-10-08T18:21:06.202Z,14.40
2022-10-08T18:22:38.912Z,14.40
2022-10-08T18:24:11.912Z,14.40
2022-10-08T18:25:44.617Z,14.40
2022-10-08T18:27:17.429Z,14.30
2022-10-08T18:28:51.693Z,14.30
2022-10-08T18:30:24.449Z,14.30
2022-10-08T18:31:58.771Z,14.40
2022-10-08T18:33:31.327Z,14.40
2022-10-08T18:35:04.304Z,14.40
2022-10-08T18:36:38.776Z,14.30
2022-10-08T18:38:11.537Z,14.30
2022-10-08T18:39:44.240Z,14.30
2022-10-08T18:41:18.830Z,14.30
2022-10-08T18:42:51.721Z,14.30
2022-10-08T18:44:26.029Z,14.30
2022-10-08T18:46:03.336Z,14.30
2022-10-08T18:47:37.453Z,14.20
2022-10-08T18:49:13.905Z,14.20
2022-10-08T18:50:46.930Z,14.20
2022-10-08T18:52:21.800Z,14.20
2022-10-08T18:53:56.060Z,14.20
2022-10-08T18:55:28.780Z,14.10
2022-10-08T18:57:01.498Z,14.10
2022-10-08T18:58:34.776Z,14.10
2022-10-08T19:00:08.724Z,14.10
2022-10-08T19:01:43.817Z,14.00
2022-10-08T19:03:17.987Z,13.90
2022-10-08T19:04:51.085Z,13.80
2022-10-08T19:06:26.100Z,13.80
2022-10-08T19:07:58.820Z,13.70
2022-10-08T19:09:31.614Z,13.60
2022-10-08T19:11:10.689Z,13.60
2022-10-08T19:12:43.412Z,13.50
2022-10-08T19:14:17.856Z,13.50
2022-10-08T19:15:50.624Z,13.50
2022-10-08T19:17:23.348Z,13.50
2022-10-08T19:18:59.031Z,13.40
2022-10-08T19:20:31.791Z,13.40
2022-10-08T19:22:04.694Z,13.40
2022-10-08T19:23:36.531Z,13.40
2022-10-08T19:25:09.464Z,13.40
2022-10-08T19:26:42.565Z,13.40
2022-10-08T19:28:15.313Z,13.50
2022-10-08T19:29:48.127Z,13.40
2022-10-08T19:31:22.652Z,13.50
2022-10-08T19:32:56.326Z,13.50
2022-10-08T19:34:30.409Z,13.50
2022-10-08T19:36:03.172Z,13.40
2022-10-08T19:37:35.964Z,13.40
2022-10-08T19:39:11.931Z,13.40
2022-10-08T19:40:44.672Z,13.40
2022-10-08T19:42:17.402Z,13.40
2022-10-08T19:43:50.763Z,13.40
2022-10-08T19:45:23.492Z,13.40
2022-10-08T19:46:56.274Z,13.40
2022-10-08T19:48:29.044Z,13.40
2022-10-08T19:50:03.428Z,13.30
2022-10-08T19:51:37.029Z,13.30
2022-10-08T19:53:09.832Z,13.30
2022-10-08T19:54:43.019Z,13.30
2022-10-08T19:56:16.638Z,13.30
2022-10-08T19:57:49.353Z,13.30
2022-10-08T19:59:22.482Z,13.30
2022-10-08T20:00:58.660Z,13.20
2022-10-08T20:02:31.454Z,13.20
2022-10-08T20:04:06.363Z,13.20
2022-10-08T20:05:40.430Z,13.20
2022-10-08T20:07:13.129Z,13.10
2022-10-08T20:08:45.895Z,13.10
2022-10-08T20:10:18.612Z,13.10
2022-10-08T20:11:51.319Z,13.00
2022-10-08T20:13:24.173Z,13.00
2022-10-08T20:14:56.901Z,13.00
2022-10-08T20:16:31.113Z,12.90
2022-10-08T20:18:04.373Z,12.90
2022-10-08T20:19:37.208Z,12.90
2022-10-08T20:21:12.854Z,12.80
2022-10-08T20:22:45.926Z,12.80
2022-10-08T20:24:20.032Z,12.80
2022-10-08T20:25:52.761Z,12.70
2022-10-08T20:27:25.545Z,12.70
2022-10-08T20:28:59.682Z,12.70
2022-10-08T20:30:32.397Z,12.70
2022-10-08T20:32:05.107Z,12.70
2022-10-08T20:33:37.933Z,12.70